Beaufort, SC

2:22 AM EST on December 03, 2016 (GMT -0500)
Downtown Marina Docks | | Change Station

Elev 0 ft 32.43 °N, 80.67 °W | Updated 29 seconds ago

Clear
Clear
45.5 °F
Feels Like 46 °F
N
0.0
Wind Variable Wind from WSW

Today
High -- | Low -- °F
--% Chance of Precip.
Yesterday
High -- | Low -- °F
Precip. -- in
Pressure 30.20 in
Visibility 7.0 miles
Clouds Clear
Windchill 46 °F
Dew Point 44 °F
Humidity 94%
Rainfall 0.00 in
Snow Depth Not available.
7:08 AM 5:16 PM
Waxing Crescent, 13% visible
METAR KARW 030715Z AUTO 00000KT 7SM CLR 07/06 A3020 RMK AO2
Pressure 30.20 in
Visibility 7.0 miles
Clouds Clear
Windchill 46 °F
Dew Point 44 °F
Humidity 94%
Rainfall 0.00 in
Snow Depth Not available.
7:08 AM 5:16 PM
Waxing Crescent, 13% visible
METAR KARW 030715Z AUTO 00000KT 7SM CLR 07/06 A3020 RMK AO2

10-Day Weather Forecast

Almanac

Astronomy

Dec. 03, 2016 Rise Set
Actual Time
Civil Twilight
Nautical Twilight
Astronomical Twilight
Moon
Length of Visible Light
Length of Day
Tomorrow will be .
, % of the Moon is Illuminated

Today's Extremes

State Highs State Lows

Community

WunderPhotos

Upload Photos

1,955,432 photos uploaded!

WunderBlog® & News

Nearby

Air Quality

  Air Quality AQ Index Pollutant
Not available.

Snow Depth

Station Depth Elevation

Earthquake Activity

City Distance Mag. Time & Date
Minimum magnitude displayed is 2.5.

Coastal Water Temperatures

Place Temperature

Stations

Nearby Weather Stations

Station Location Temp. Windchill Dew Point Humidity Wind Precip. Elev Updated Type
                   

Watches & Warnings

There are currently no watches in effect.